Time;durP1;ratioP1;P1;durP2;ratioP2;P2;SDS_P1;SDS_P2;PMS_P1;PMS_P2;Temp;Humidity;BMP_temperature;BMP_pressure;BME280_temperature;BME280_humidity;BME280_pressure;Samples;Min_cycle;Max_cycle;Signal;HPM_P1;HPM_P2
2024/01/21 00:02:24;;;;;;;1999.90;999.90;;;-0.80;99.90;;;;;;5067058;28;20427;-66
2024/01/21 00:04:51;;;;;;;1999.90;999.90;;;-0.80;99.90;;;;;;5066055;28;20411;-66
2024/01/21 00:07:17;;;;;;;1999.90;999.90;;;-0.80;99.90;;;;;;5080286;28;20415;-67
2024/01/21 00:09:44;;;;;;;1999.90;999.90;;;-0.50;99.90;;;;;;5078969;28;20417;-66
2024/01/21 00:12:10;;;;;;;1999.90;999.90;;;-0.80;99.90;;;;;;5078290;28;20435;-66
2024/01/21 00:14:37;;;;;;;1999.90;999.90;;;-0.90;99.90;;;;;;5067107;28;21123;-65
2024/01/21 00:17:05;;;;;;;1999.90;999.90;;;-0.80;99.90;;;;;;5072025;28;20412;-66
2024/01/21 00:19:33;;;;;;;1999.90;999.90;;;-0.80;99.90;;;;;;5073941;28;20441;-66
2024/01/21 00:21:59;;;;;;;1999.90;999.90;;;-0.60;99.90;;;;;;5076292;28;20411;-65
2024/01/21 00:24:26;;;;;;;1999.90;999.90;;;-0.70;99.90;;;;;;5077090;28;20461;-67
2024/01/21 00:26:53;;;;;;;1999.90;999.90;;;-0.40;99.90;;;;;;5069270;28;20439;-65
2024/01/21 00:29:19;;;;;;;1999.90;999.90;;;-0.70;99.90;;;;;;5085422;28;20392;-70
2024/01/21 00:31:46;;;;;;;1999.90;999.90;;;-0.30;99.90;;;;;;5079444;28;20469;-66
2024/01/21 00:34:13;;;;;;;1999.90;999.90;;;-0.60;99.90;;;;;;5076121;28;20429;-68
2024/01/21 00:36:41;;;;;;;1999.90;999.90;;;-0.60;99.90;;;;;;5078408;28;20430;-66
2024/01/21 00:39:08;;;;;;;1999.90;999.90;;;-0.40;99.90;;;;;;5069813;28;20447;-65
2024/01/21 00:41:35;;;;;;;1999.90;999.90;;;-0.70;99.90;;;;;;5073161;28;20984;-66
2024/01/21 00:44:01;;;;;;;1999.90;999.90;;;-0.30;99.90;;;;;;5069573;28;20418;-62
2024/01/21 00:46:29;;;;;;;1999.90;999.90;;;-0.80;99.90;;;;;;5077346;28;20408;-66
2024/01/21 00:48:55;;;;;;;1999.90;999.90;;;-0.40;99.90;;;;;;5080409;28;20919;-68
2024/01/21 00:51:22;;;;;;;1999.90;999.90;;;-0.70;99.90;;;;;;5071805;28;20431;-68
2024/01/21 00:53:50;;;;;;;1999.90;999.90;;;-0.70;99.90;;;;;;5071921;28;20431;-66
2024/01/21 00:56:17;;;;;;;1999.90;999.90;;;-0.80;99.90;;;;;;5070557;28;20431;-66
2024/01/21 00:58:43;;;;;;;1999.90;999.90;;;-0.80;99.90;;;;;;5073548;28;20432;-66
2024/01/21 01:01:10;;;;;;;1999.90;999.90;;;-0.80;99.90;;;;;;5069782;28;20414;-68
2024/01/21 01:03:38;;;;;;;1999.90;999.90;;;-1.00;99.90;;;;;;5078312;28;20416;-66
2024/01/21 01:06:05;;;;;;;1999.90;999.90;;;-1.00;99.90;;;;;;5069907;28;20411;-68
2024/01/21 01:08:32;;;;;;;1999.90;999.90;;;-1.00;99.90;;;;;;5073465;28;20773;-64
2024/01/21 01:11:00;;;;;;;1999.90;999.90;;;-0.80;99.90;;;;;;5067020;28;20438;-66
2024/01/21 01:13:26;;;;;;;1999.90;999.90;;;-0.40;99.90;;;;;;5080570;28;20418;-66
2024/01/21 01:15:53;;;;;;;1999.90;999.90;;;-0.70;99.90;;;;;;5083570;28;20413;-68
2024/01/21 01:18:20;;;;;;;1999.90;999.90;;;-0.80;99.90;;;;;;5085834;28;20415;-68
2024/01/21 01:20:46;;;;;;;1999.90;999.90;;;-0.80;99.90;;;;;;5079345;28;20410;-66
2024/01/21 01:23:14;;;;;;;1999.90;999.90;;;-0.90;99.90;;;;;;5087398;28;20408;-66
2024/01/21 01:25:41;;;;;;;1999.90;999.90;;;-0.90;99.90;;;;;;5080531;28;20445;-61
2024/01/21 01:28:09;;;;;;;1999.90;999.90;;;-1.00;99.90;;;;;;5079948;28;20926;-63
2024/01/21 01:30:36;;;;;;;1999.90;999.90;;;-1.00;99.90;;;;;;5082212;28;20413;-66
2024/01/21 01:33:03;;;;;;;1999.90;999.90;;;-0.70;99.90;;;;;;5075218;28;20415;-65
2024/01/21 01:35:29;;;;;;;1999.90;999.90;;;-1.10;99.90;;;;;;5077709;28;20435;-66
2024/01/21 01:37:56;;;;;;;1999.90;999.90;;;-1.10;99.90;;;;;;5077196;28;20413;-67
2024/01/21 01:40:23;;;;;;;1999.90;999.90;;;-0.60;99.90;;;;;;5083508;28;20475;-65
2024/01/21 01:42:56;;;;;;;1999.90;999.90;;;-1.10;99.90;;;;;;5078569;28;20410;-64
2024/01/21 01:45:24;;;;;;;1999.90;999.90;;;-1.10;99.90;;;;;;5074326;28;20423;-67
2024/01/21 01:47:51;;;;;;;1999.90;999.90;;;-1.00;99.90;;;;;;5072900;28;20915;-66
2024/01/21 01:50:18;;;;;;;1999.90;999.90;;;-0.90;99.90;;;;;;5077522;28;20407;-66
2024/01/21 01:52:46;;;;;;;1999.90;999.90;;;-1.10;99.90;;;;;;5078717;28;20426;-66
2024/01/21 01:55:13;;;;;;;1999.90;999.90;;;-1.30;99.90;;;;;;5071316;28;20434;-67
2024/01/21 01:57:40;;;;;;;1999.90;999.90;;;-1.30;99.90;;;;;;5077918;28;20432;-64
2024/01/21 02:00:08;;;;;;;1999.90;999.90;;;-1.20;99.90;;;;;;5073390;28;20470;-65
2024/01/21 02:02:37;;;;;;;1999.90;999.90;;;-1.30;99.90;;;;;;5076948;28;20410;-65
2024/01/21 02:05:05;;;;;;;1999.90;999.90;;;-1.30;99.90;;;;;;5077328;28;20419;-64
2024/01/21 02:07:31;;;;;;;1999.90;999.90;;;-1.30;99.90;;;;;;5086302;28;20411;-66
2024/01/21 02:09:59;;;;;;;1999.90;999.90;;;-1.00;99.90;;;;;;5071122;28;20518;-65
2024/01/21 02:12:26;;;;;;;1999.90;999.90;;;-1.10;99.90;;;;;;5072210;28;20419;-62
2024/01/21 02:14:52;;;;;;;1999.90;999.90;;;-1.00;99.90;;;;;;5074802;28;20927;-66
2024/01/21 02:17:19;;;;;;;1999.90;999.90;;;-0.90;99.90;;;;;;5071539;28;20433;-66
2024/01/21 02:19:47;;;;;;;1999.90;999.90;;;-0.60;99.90;;;;;;5074810;28;20408;-66
2024/01/21 02:22:14;;;;;;;1999.90;999.90;;;-1.00;99.90;;;;;;5078455;28;20918;-66
2024/01/21 02:24:42;;;;;;;1999.90;999.90;;;-1.10;99.90;;;;;;5067999;28;20956;-67
2024/01/21 02:27:08;;;;;;;1999.90;999.90;;;-0.70;99.80;;;;;;5074377;28;20439;-66
2024/01/21 02:29:35;;;;;;;1999.90;999.90;;;-0.90;99.90;;;;;;5076812;28;20410;-66
2024/01/21 02:32:02;;;;;;;1999.90;999.90;;;-0.70;98.50;;;;;;5078746;28;20420;-62
2024/01/21 02:34:31;;;;;;;1999.90;999.90;;;-0.80;99.90;;;;;;5078481;28;20435;-66
2024/01/21 02:36:57;;;;;;;1999.90;999.90;;;-0.90;99.90;;;;;;5077470;28;20420;-68
2024/01/21 02:39:24;;;;;;;1999.90;999.90;;;-0.90;99.90;;;;;;5070755;28;20937;-66
2024/01/21 02:41:52;;;;;;;1999.90;999.90;;;-0.60;98.80;;;;;;5071674;28;20419;-61
2024/01/21 02:44:19;;;;;;;1999.90;999.90;;;-0.70;99.40;;;;;;5077200;28;20404;-66
2024/01/21 02:46:46;;;;;;;1999.90;999.90;;;-0.80;99.90;;;;;;5071345;28;20522;-66
2024/01/21 02:49:12;;;;;;;1999.90;999.90;;;-0.90;99.90;;;;;;5071550;28;20423;-66
2024/01/21 02:51:39;;;;;;;1999.90;999.90;;;-0.60;99.90;;;;;;5071512;28;20442;-66
2024/01/21 02:54:06;;;;;;;1999.90;999.90;;;-0.60;99.90;;;;;;5075730;28;20447;-66
2024/01/21 02:56:33;;;;;;;1999.90;999.90;;;-1.00;99.90;;;;;;5070906;28;20511;-66
2024/01/21 02:59:01;;;;;;;1999.90;999.90;;;-1.10;99.90;;;;;;5084659;28;20467;-65
2024/01/21 03:01:28;;;;;;;1999.90;999.90;;;-1.20;99.90;;;;;;5071629;28;20754;-61
2024/01/21 03:03:54;;;;;;;1999.90;999.90;;;-0.60;99.30;;;;;;5082271;28;20442;-66
2024/01/21 03:06:21;;;;;;;1999.90;999.90;;;-0.70;98.20;;;;;;5090691;28;20527;-67
2024/01/21 03:08:48;;;;;;;1999.90;999.90;;;-0.30;95.00;;;;;;5093815;28;20453;-62
2024/01/21 03:11:15;;;;;;;1999.90;999.90;;;-0.30;96.30;;;;;;5095032;28;20433;-62
2024/01/21 03:13:42;;;;;;;1999.90;999.90;;;-0.40;96.90;;;;;;5082716;28;20415;-64
2024/01/21 03:16:11;;;;;;;1999.90;999.90;;;-0.20;97.20;;;;;;5072780;28;20459;-64
2024/01/21 03:18:38;;;;;;;1999.90;999.90;;;-0.70;97.20;;;;;;5074712;28;20414;-64
2024/01/21 03:21:06;;;;;;;1999.90;999.90;;;-0.20;96.80;;;;;;5075096;28;20442;-67
2024/01/21 03:23:32;;;;;;;1999.90;999.90;;;-0.50;97.40;;;;;;5069838;28;20544;-65
2024/01/21 03:25:59;;;;;;;1999.90;999.90;;;-0.40;98.80;;;;;;5079897;28;20413;-64
2024/01/21 03:28:26;;;;;;;1999.90;999.90;;;-0.70;98.30;;;;;;5070699;28;20936;-66
2024/01/21 03:30:53;;;;;;;1999.90;999.90;;;-0.60;97.40;;;;;;5072919;28;20415;-67
2024/01/21 03:33:21;;;;;;;1999.90;999.90;;;-0.50;97.60;;;;;;5074802;28;20419;-65
2024/01/21 03:35:48;;;;;;;1999.90;999.90;;;-0.20;92.50;;;;;;5078561;28;20430;-65
2024/01/21 03:38:15;;;;;;;1999.90;999.90;;;0.10;93.70;;;;;;5069290;28;20510;-66
2024/01/21 03:40:41;;;;;;;1999.90;999.90;;;0.20;94.40;;;;;;5085815;28;20415;-64
2024/01/21 03:43:08;;;;;;;1999.90;999.90;;;0.10;93.80;;;;;;5071720;28;20411;-64
2024/01/21 03:45:35;;;;;;;1999.90;999.90;;;0.20;94.80;;;;;;5070573;28;20420;-63
2024/01/21 03:48:03;;;;;;;1999.90;999.90;;;0.00;94.80;;;;;;5075301;28;20411;-62
2024/01/21 03:50:31;;;;;;;1999.90;999.90;;;0.10;95.50;;;;;;5076480;28;20503;-69
2024/01/21 03:52:59;;;;;;;1999.90;999.90;;;0.20;94.90;;;;;;5069015;28;20910;-67
2024/01/21 03:55:25;;;;;;;1999.90;999.90;;;0.50;94.00;;;;;;5071727;28;20430;-64
2024/01/21 03:57:52;;;;;;;1999.90;999.90;;;0.40;94.40;;;;;;5072962;28;20406;-67
2024/01/21 04:00:19;;;;;;;1999.90;999.90;;;0.50;93.30;;;;;;5069979;28;20446;-67
2024/01/21 04:02:46;;;;;;;1999.90;999.90;;;0.60;94.20;;;;;;5078533;28;20437;-69
2024/01/21 04:05:13;;;;;;;1999.90;999.90;;;0.80;93.20;;;;;;5078903;28;20406;-67
2024/01/21 04:07:41;;;;;;;1999.90;999.90;;;0.80;94.30;;;;;;5067034;28;20435;-66
2024/01/21 04:10:09;;;;;;;1999.90;999.90;;;1.10;93.20;;;;;;5073002;28;20414;-67
2024/01/21 04:12:36;;;;;;;1999.90;999.90;;;1.10;93.40;;;;;;5076549;28;20410;-66
2024/01/21 04:15:03;;;;;;;1999.90;999.90;;;1.30;91.80;;;;;;5070379;28;20432;-67
2024/01/21 04:17:31;;;;;;;1999.90;999.90;;;1.50;90.80;;;;;;5075758;28;20561;-67
2024/01/21 04:19:57;;;;;;;1999.90;999.90;;;1.40;92.20;;;;;;5068962;28;20481;-67
2024/01/21 04:22:24;;;;;;;1999.90;999.90;;;1.30;91.10;;;;;;5069329;28;20411;-68
2024/01/21 04:24:52;;;;;;;1999.90;999.90;;;1.30;93.00;;;;;;5072589;28;20400;-67
2024/01/21 04:27:19;;;;;;;1999.90;999.90;;;1.30;93.90;;;;;;5080627;28;20419;-67
2024/01/21 04:29:45;;;;;;;1999.90;999.90;;;1.00;94.70;;;;;;5073443;28;20411;-69
2024/01/21 04:32:12;;;;;;;1999.90;999.90;;;0.80;94.70;;;;;;5068095;28;20485;-67
2024/01/21 04:34:39;;;;;;;1999.90;999.90;;;0.90;93.30;;;;;;5069849;28;20407;-67
2024/01/21 04:37:06;;;;;;;1999.90;999.90;;;0.90;94.10;;;;;;5072415;28;20461;-67
2024/01/21 04:39:32;;;;;;;1999.90;999.90;;;1.20;89.10;;;;;;5076143;28;20411;-66
2024/01/21 04:42:00;;;;;;;1999.90;999.90;;;1.40;90.20;;;;;;5090404;28;20410;-67
2024/01/21 04:44:27;;;;;;;1999.90;999.90;;;1.50;88.30;;;;;;5093000;28;20406;-64
2024/01/21 04:46:54;;;;;;;1999.90;999.90;;;1.70;88.70;;;;;;5076303;28;20461;-66
2024/01/21 04:49:20;;;;;;;1999.90;999.90;;;1.50;91.50;;;;;;5078311;28;20415;-69
2024/01/21 04:51:47;;;;;;;1999.90;999.90;;;1.40;92.40;;;;;;5076198;28;20414;-64
2024/01/21 04:54:14;;;;;;;1999.90;999.90;;;1.30;93.00;;;;;;5074877;28;20415;-67
2024/01/21 04:56:40;;;;;;;1999.90;999.90;;;1.00;93.90;;;;;;5077086;28;20423;-66
2024/01/21 04:59:09;;;;;;;1999.90;999.90;;;1.10;93.40;;;;;;5070647;28;20439;-67
2024/01/21 05:01:36;;;;;;;1999.90;999.90;;;1.20;91.60;;;;;;5073295;28;20526;-67
2024/01/21 05:04:03;;;;;;;1999.90;999.90;;;1.10;92.90;;;;;;5073698;28;20430;-63
2024/01/21 05:06:29;;;;;;;1999.90;999.90;;;1.40;90.60;;;;;;5077978;28;20419;-66
2024/01/21 05:08:56;;;;;;;1999.90;999.90;;;1.50;90.50;;;;;;5079469;28;20411;-65
2024/01/21 05:11:23;;;;;;;1999.90;999.90;;;1.30;91.80;;;;;;5080616;28;20918;-66
2024/01/21 05:13:49;;;;;;;1999.90;999.90;;;1.30;91.60;;;;;;5072626;28;20441;-67
2024/01/21 05:16:18;;;;;;;1999.90;999.90;;;1.30;90.70;;;;;;5075730;28;20435;-66
2024/01/21 05:18:45;;;;;;;1999.90;999.90;;;1.30;92.00;;;;;;5080172;28;20475;-66
2024/01/21 05:21:11;;;;;;;1999.90;999.90;;;1.30;92.90;;;;;;5079566;28;20504;-67
2024/01/21 05:23:38;;;;;;;1999.90;999.90;;;1.60;86.60;;;;;;5080169;28;20443;-69
2024/01/21 05:26:05;;;;;;;1999.90;999.90;;;2.00;85.90;;;;;;5072918;28;20411;-66
2024/01/21 05:28:31;;;;;;;1999.90;999.90;;;2.40;81.50;;;;;;5072344;28;20439;-66
2024/01/21 05:30:58;;;;;;;1999.90;999.90;;;3.00;76.60;;;;;;5076634;28;20406;-65
2024/01/21 05:33:26;;;;;;;1999.90;999.90;;;3.50;75.50;;;;;;5077235;28;20801;-67
2024/01/21 05:35:53;;;;;;;1999.90;999.90;;;3.80;72.70;;;;;;5069140;28;20484;-66
2024/01/21 05:38:20;;;;;;;1999.90;999.90;;;3.90;71.80;;;;;;5072761;28;20411;-64
2024/01/21 05:40:46;;;;;;;1999.90;999.90;;;3.80;74.90;;;;;;5073584;28;20488;-66
2024/01/21 05:43:13;;;;;;;1999.90;999.90;;;3.70;75.00;;;;;;5075528;28;20411;-65
2024/01/21 05:45:40;;;;;;;1999.90;999.90;;;3.80;72.40;;;;;;5071668;28;20463;-66
2024/01/21 05:48:07;;;;;;;1999.90;999.90;;;3.80;72.10;;;;;;5076342;28;20451;-66
2024/01/21 05:50:35;;;;;;;1999.90;999.90;;;3.90;70.30;;;;;;5065041;28;20426;-66
2024/01/21 05:53:05;;;;;;;1999.90;999.90;;;3.70;73.70;;;;;;5072064;28;20460;-64
2024/01/21 05:55:31;;;;;;;1999.90;999.90;;;3.50;74.60;;;;;;5074400;28;20480;-62
2024/01/21 05:57:58;;;;;;;1999.90;999.90;;;3.20;77.70;;;;;;5074580;28;20412;-69
2024/01/21 06:00:25;;;;;;;1999.90;999.90;;;3.30;78.50;;;;;;5078902;28;20416;-66
2024/01/21 06:02:52;;;;;;;1999.90;999.90;;;3.40;77.40;;;;;;5071027;28;20435;-66
2024/01/21 06:05:20;;;;;;;1999.90;999.90;;;3.70;73.90;;;;;;5072641;28;20997;-66
2024/01/21 06:07:48;;;;;;;1999.90;999.90;;;3.80;76.30;;;;;;5079472;28;20471;-67
2024/01/21 06:10:15;;;;;;;1999.90;999.90;;;4.20;67.70;;;;;;5071481;28;20421;-66
2024/01/21 06:12:42;;;;;;;1999.90;999.90;;;4.70;59.20;;;;;;5071981;28;20431;-66
2024/01/21 06:15:09;;;;;;;1999.90;999.90;;;5.30;57.10;;;;;;5073526;28;20820;-64
2024/01/21 06:17:36;;;;;;;1999.90;999.90;;;5.50;54.50;;;;;;5074924;28;20827;-65
2024/01/21 06:20:03;;;;;;;1999.90;999.90;;;6.10;50.50;;;;;;5079442;28;20406;-65
2024/01/21 06:22:30;;;;;;;1999.90;999.90;;;6.10;49.80;;;;;;5080308;28;20414;-67
2024/01/21 06:24:58;;;;;;;1999.90;999.90;;;6.20;47.70;;;;;;5070405;28;20435;-65
2024/01/21 06:27:24;;;;;;;1999.90;999.90;;;6.20;48.60;;;;;;5074760;28;20422;-64
2024/01/21 06:29:51;;;;;;;1999.90;999.90;;;6.10;48.20;;;;;;5078119;28;20480;-66
2024/01/21 06:32:18;;;;;;;1999.90;999.90;;;6.10;48.80;;;;;;5085248;28;20413;-63
2024/01/21 06:34:44;;;;;;;1999.90;999.90;;;6.10;48.70;;;;;;5071421;28;20419;-65
2024/01/21 06:37:11;;;;;;;1999.90;999.90;;;6.10;48.70;;;;;;5072563;28;20462;-66
2024/01/21 06:39:38;;;;;;;1999.90;999.90;;;6.10;47.90;;;;;;5073422;28;20425;-65
2024/01/21 06:42:06;;;;;;;1999.90;999.90;;;6.20;46.00;;;;;;5072002;28;20469;-66
2024/01/21 06:44:33;;;;;;;1999.90;999.90;;;6.40;46.30;;;;;;5080302;28;20451;-65
2024/01/21 06:46:59;;;;;;;1999.90;999.90;;;6.10;45.30;;;;;;5077000;28;20408;-68
2024/01/21 06:49:26;;;;;;;1999.90;999.90;;;6.10;46.80;;;;;;5075185;28;20408;-63
2024/01/21 06:51:54;;;;;;;1999.90;999.90;;;6.00;46.90;;;;;;5079159;28;20925;-67
2024/01/21 06:54:21;;;;;;;1999.90;999.90;;;6.00;46.00;;;;;;5072159;28;20417;-61
2024/01/21 06:56:48;;;;;;;1999.90;999.90;;;5.90;46.60;;;;;;5079773;28;20430;-67
2024/01/21 06:59:16;;;;;;;1999.90;999.90;;;5.90;46.00;;;;;;5075780;28;20412;-66
2024/01/21 07:01:42;;;;;;;1999.90;999.90;;;5.90;47.00;;;;;;5098397;28;20419;-66
2024/01/21 07:04:10;;;;;;;1999.90;999.90;;;5.80;47.30;;;;;;5099612;28;20515;-68
2024/01/21 07:06:36;;;;;;;1999.90;999.90;;;5.90;47.90;;;;;;5087941;28;20424;-66
2024/01/21 07:09:04;;;;;;;1999.90;999.90;;;5.90;47.10;;;;;;5086936;28;20428;-67
2024/01/21 07:11:35;;;;;;;1999.90;999.90;;;6.00;47.60;;;;;;5071428;28;20488;-66
2024/01/21 07:14:02;;;;;;;1999.90;999.90;;;5.80;47.70;;;;;;5072843;28;20447;-67
2024/01/21 07:16:30;;;;;;;1999.90;999.90;;;5.80;47.40;;;;;;5077200;28;20436;-68
2024/01/21 07:18:56;;;;;;;1999.90;999.90;;;5.90;46.10;;;;;;5077298;28;20407;-68
2024/01/21 07:21:23;;;;;;;1999.90;999.90;;;5.90;45.70;;;;;;5071948;28;20415;-66
2024/01/21 07:23:50;;;;;;;1999.90;999.90;;;5.90;46.70;;;;;;5067758;28;20411;-69
2024/01/21 07:26:18;;;;;;;1999.90;999.90;;;5.80;48.20;;;;;;5069456;28;20411;-66
2024/01/21 07:28:44;;;;;;;1999.90;999.90;;;5.60;48.10;;;;;;5081018;28;20495;-66
2024/01/21 07:31:11;;;;;;;1999.90;999.90;;;5.60;48.00;;;;;;5086210;28;20432;-68
2024/01/21 07:33:39;;;;;;;1999.90;999.90;;;5.50;48.40;;;;;;5089724;28;20414;-68
2024/01/21 07:36:06;;;;;;;1999.90;999.90;;;5.40;50.90;;;;;;5084284;28;20434;-67
2024/01/21 07:38:33;;;;;;;1999.90;999.90;;;5.40;50.40;;;;;;5083865;28;20419;-66
2024/01/21 07:41:00;;;;;;;1999.90;999.90;;;5.50;51.50;;;;;;5071287;28;20476;-66
2024/01/21 07:43:27;;;;;;;1999.90;999.90;;;5.60;48.80;;;;;;5068625;28;20434;-64
2024/01/21 07:45:54;;;;;;;1999.90;999.90;;;5.50;50.30;;;;;;5072228;28;20407;-67
2024/01/21 07:48:20;;;;;;;1999.90;999.90;;;5.50;49.30;;;;;;5081609;28;20411;-67
2024/01/21 07:50:49;;;;;;;1999.90;999.90;;;5.70;49.00;;;;;;5077937;28;20415;-68
2024/01/21 07:53:18;;;;;;;1999.90;999.90;;;5.70;48.60;;;;;;5070615;28;20439;-66
2024/01/21 07:55:45;;;;;;;1999.90;999.90;;;5.60;49.80;;;;;;5072707;28;20460;-63
2024/01/21 07:58:15;;;;;;;1999.90;999.90;;;5.60;50.10;;;;;;5074076;28;20419;-66
2024/01/21 08:00:41;;;;;;;1999.90;999.90;;;5.70;50.10;;;;;;5070345;28;20427;-67
2024/01/21 08:03:08;;;;;;;1999.90;999.90;;;5.60;49.60;;;;;;5073087;28;21057;-64
2024/01/21 08:05:35;;;;;;;1999.90;999.90;;;5.70;48.90;;;;;;5069832;28;20441;-64
2024/01/21 08:08:03;;;;;;;1999.90;999.90;;;5.70;48.10;;;;;;5069900;28;20423;-61
2024/01/21 08:10:29;;;;;;;1999.90;999.90;;;5.70;47.70;;;;;;5071804;28;20435;-64
2024/01/21 08:12:56;;;;;;;1999.90;999.90;;;5.70;48.00;;;;;;5069790;28;20411;-65
2024/01/21 08:15:23;;;;;;;1999.90;999.90;;;5.70;49.20;;;;;;5079504;28;20899;-64
2024/01/21 08:17:49;;;;;;;1999.90;999.90;;;5.80;48.70;;;;;;5090417;28;20951;-67
2024/01/21 08:20:16;;;;;;;1999.90;999.90;;;5.80;48.80;;;;;;5071809;28;20439;-66
2024/01/21 08:22:44;;;;;;;1999.90;999.90;;;5.90;48.10;;;;;;5069612;28;20408;-68
2024/01/21 08:25:12;;;;;;;1999.90;999.90;;;6.20;46.00;;;;;;5076399;28;20599;-62
2024/01/21 08:27:38;;;;;;;1999.90;999.90;;;6.60;44.60;;;;;;5070118;28;20438;-65
2024/01/21 08:30:06;;;;;;;1999.90;999.90;;;7.00;42.00;;;;;;5072750;28;21030;-62
2024/01/21 08:32:33;;;;;;;1999.90;999.90;;;7.10;42.90;;;;;;5069250;28;20423;-65
2024/01/21 08:34:59;;;;;;;1999.90;999.90;;;7.10;40.90;;;;;;5078540;28;20415;-65
2024/01/21 08:37:26;;;;;;;1999.90;999.90;;;7.20;40.70;;;;;;5089193;28;20425;-65
2024/01/21 08:39:55;;;;;;;1999.90;999.90;;;7.30;41.50;;;;;;5106460;28;20414;-62
2024/01/21 08:42:23;;;;;;;1999.90;999.90;;;7.30;42.00;;;;;;5074331;28;20463;-65
2024/01/21 08:44:50;;;;;;;1999.90;999.90;;;7.30;42.00;;;;;;5063916;28;20416;-65
2024/01/21 08:47:17;;;;;;;1999.90;999.90;;;7.30;43.10;;;;;;5086992;28;20419;-67
2024/01/21 08:49:44;;;;;;;1999.90;999.90;;;7.30;42.80;;;;;;5090894;28;20410;-65
2024/01/21 08:52:10;;;;;;;1999.90;999.90;;;7.50;40.70;;;;;;5091189;28;20421;-63
2024/01/21 08:54:37;;;;;;;1999.90;999.90;;;7.60;40.10;;;;;;5090954;28;20406;-62
2024/01/21 08:57:04;;;;;;;1999.90;999.90;;;7.70;40.00;;;;;;5070890;28;20510;-67
2024/01/21 08:59:32;;;;;;;1999.90;999.90;;;7.80;37.80;;;;;;5072802;28;20813;-66
2024/01/21 09:01:59;;;;;;;1999.90;999.90;;;7.90;38.20;;;;;;5090633;28;20417;-64
2024/01/21 09:04:26;;;;;;;1999.90;999.90;;;7.90;37.50;;;;;;5090695;28;20417;-62
2024/01/21 09:06:53;;;;;;;1999.90;999.90;;;7.80;39.40;;;;;;5090910;28;20471;-66
2024/01/21 09:09:19;;;;;;;1999.90;999.90;;;7.60;40.40;;;;;;5089826;28;20419;-66
2024/01/21 09:11:47;;;;;;;1999.90;999.90;;;7.50;43.30;;;;;;5071433;28;20430;-62
2024/01/21 09:14:13;;;;;;;1999.90;999.90;;;7.40;44.20;;;;;;5070468;28;20422;-64
2024/01/21 09:16:42;;;;;;;1999.90;999.90;;;7.30;46.30;;;;;;5082589;28;20538;-65
2024/01/21 09:19:09;;;;;;;1999.90;999.90;;;7.40;43.50;;;;;;5090135;28;20409;-66
2024/01/21 09:21:36;;;;;;;1999.90;999.90;;;7.40;45.30;;;;;;5090499;28;20829;-63
2024/01/21 09:24:04;;;;;;;1999.90;999.90;;;7.40;44.60;;;;;;5085088;28;20427;-66
2024/01/21 09:26:31;;;;;;;1999.90;999.90;;;7.50;44.30;;;;;;5079541;28;20407;-66
2024/01/21 09:28:57;;;;;;;1999.90;999.90;;;7.30;48.50;;;;;;5076423;28;20413;-64
2024/01/21 09:31:24;;;;;;;1999.90;999.90;;;7.20;48.60;;;;;;5089729;28;20444;-66
2024/01/21 09:33:52;;;;;;;1999.90;999.90;;;7.00;48.60;;;;;;5089868;28;20434;-62
2024/01/21 09:36:19;;;;;;;1999.90;999.90;;;7.00;49.00;;;;;;5073571;28;20933;-65
2024/01/21 09:38:46;;;;;;;1999.90;999.90;;;6.90;49.50;;;;;;5069033;28;20416;-66
2024/01/21 09:41:20;;;;;;;1999.90;999.90;;;6.80;50.10;;;;;;5085530;28;20406;-63
2024/01/21 09:43:47;;;;;;;1999.90;999.90;;;6.80;50.00;;;;;;5090075;28;20912;-65
2024/01/21 09:46:14;;;;;;;1999.90;999.90;;;6.90;49.60;;;;;;5093892;28;20826;-66
2024/01/21 09:48:41;;;;;;;1999.90;999.90;;;6.90;50.80;;;;;;5093631;28;20413;-66
2024/01/21 09:51:09;;;;;;;1999.90;999.90;;;6.80;50.50;;;;;;5073888;28;20428;-66
2024/01/21 09:53:36;;;;;;;1999.90;999.90;;;6.80;50.30;;;;;;5075612;28;20517;-65
2024/01/21 09:56:06;;;;;;;1999.90;999.90;;;6.90;49.80;;;;;;5093469;28;20898;-66
2024/01/21 09:58:36;;;;;;;1999.90;999.90;;;7.00;51.60;;;;;;5092576;28;20492;-69
2024/01/21 10:01:03;;;;;;;1999.90;999.90;;;7.00;51.70;;;;;;5093028;28;20417;-66
2024/01/21 10:03:30;;;;;;;1999.90;999.90;;;7.00;51.80;;;;;;5091451;28;20417;-63
2024/01/21 10:05:57;;;;;;;1999.90;999.90;;;6.90;52.70;;;;;;5073421;28;20434;-66
2024/01/21 10:08:25;;;;;;;1999.90;999.90;;;6.80;54.30;;;;;;5073562;28;20416;-65
2024/01/21 10:10:52;;;;;;;1999.90;999.90;;;6.70;54.00;;;;;;5083107;28;20439;-66
2024/01/21 10:13:19;;;;;;;1999.90;999.90;;;6.60;55.50;;;;;;5074209;28;20412;-63
2024/01/21 10:15:45;;;;;;;1999.90;999.90;;;6.60;56.10;;;;;;5085179;28;20406;-66
2024/01/21 10:18:12;;;;;;;1999.90;999.90;;;6.60;56.00;;;;;;5092904;28;20505;-65
2024/01/21 10:20:40;;;;;;;1999.90;999.90;;;6.60;57.30;;;;;;5092658;28;20406;-63
2024/01/21 10:23:10;;;;;;;1999.90;999.90;;;6.60;59.10;;;;;;5092570;28;20413;-65
2024/01/21 10:25:43;;;;;;;1999.90;999.90;;;6.70;58.90;;;;;;5077560;28;20455;-65
2024/01/21 10:28:11;;;;;;;1999.90;999.90;;;6.70;60.60;;;;;;5072339;28;20407;-64
2024/01/21 10:30:38;;;;;;;1999.90;999.90;;;6.60;62.80;;;;;;5091907;28;20414;-65
2024/01/21 10:33:05;;;;;;;1999.90;999.90;;;6.60;65.30;;;;;;5092014;28;20455;-65
2024/01/21 10:35:32;;;;;;;1999.90;999.90;;;6.40;66.50;;;;;;5089291;28;20418;-67
2024/01/21 10:37:59;;;;;;;1999.90;999.90;;;6.30;66.50;;;;;;5085765;28;20476;-66
2024/01/21 10:40:26;;;;;;;1999.90;999.90;;;6.20;65.80;;;;;;5072632;28;20436;-66
2024/01/21 10:42:59;;;;;;;1999.90;999.90;;;6.00;66.00;;;;;;5076634;28;20414;-66
2024/01/21 10:45:26;;;;;;;1999.90;999.90;;;5.90;68.40;;;;;;5091763;28;20440;-65
2024/01/21 10:47:53;;;;;;;1999.90;999.90;;;5.50;69.70;;;;;;5092166;28;20769;-66
2024/01/21 10:50:21;;;;;;;1999.90;999.90;;;5.50;70.30;;;;;;5075213;28;20485;-62
2024/01/21 10:52:49;;;;;;;1999.90;999.90;;;5.60;70.90;;;;;;5071838;28;20536;-66
2024/01/21 10:55:16;;;;;;;1999.90;999.90;;;5.50;71.50;;;;;;5071864;28;20429;-64
2024/01/21 10:57:43;;;;;;;1999.90;999.90;;;5.60;72.70;;;;;;5072343;28;20435;-66
2024/01/21 11:00:14;;;;;;;1999.90;999.90;;;5.70;73.00;;;;;;5072065;28;20886;-70
2024/01/21 11:02:41;;;;;;;1999.90;999.90;;;5.80;74.80;;;;;;5068819;28;20496;-68
2024/01/21 11:05:09;;;;;;;1999.90;999.90;;;6.00;76.00;;;;;;5069524;28;20415;-66
2024/01/21 11:07:37;;;;;;;1999.90;999.90;;;6.20;75.50;;;;;;5075867;28;21043;-66
2024/01/21 11:10:06;;;;;;;1999.90;999.90;;;6.40;73.30;;;;;;5070477;28;20487;-66
2024/01/21 11:12:34;;;;;;;1999.90;999.90;;;6.70;66.90;;;;;;5073375;28;20416;-69
2024/01/21 11:15:29;;;;;;;1999.90;999.90;;;7.10;62.30;;;;;;5067409;28;20459;-70
2024/01/21 11:18:08;;;;;;;1999.90;999.90;;;7.10;67.30;;;;;;5069701;28;20455;-69
2024/01/21 11:20:35;;;;;;;1999.90;999.90;;;6.90;70.40;;;;;;5072192;28;20431;-67
2024/01/21 11:23:02;;;;;;;1999.90;999.90;;;6.60;71.10;;;;;;5072050;28;20497;-66
2024/01/21 11:25:35;;;;;;;1999.90;999.90;;;6.30;71.20;;;;;;5069536;28;20431;-66
2024/01/21 11:28:03;;;;;;;1999.90;999.90;;;6.10;71.00;;;;;;5073491;28;20940;-67
2024/01/21 11:30:31;;;;;;;1999.90;999.90;;;6.10;71.80;;;;;;5074584;28;20447;-67
2024/01/21 11:32:59;;;;;;;1999.90;999.90;;;6.10;70.20;;;;;;5066823;28;20416;-66
2024/01/21 11:35:28;;;;;;;1999.90;999.90;;;6.10;70.50;;;;;;5073257;28;20477;-67
2024/01/21 11:37:55;;;;;;;1999.90;999.90;;;6.30;72.50;;;;;;5072543;28;20512;-67
2024/01/21 11:40:22;;;;;;;1999.90;999.90;;;6.50;72.20;;;;;;5071774;28;20805;-68
2024/01/21 11:42:50;;;;;;;1999.90;999.90;;;6.50;72.60;;;;;;5077699;28;20946;-67
2024/01/21 11:45:19;;;;;;;1999.90;999.90;;;6.50;72.90;;;;;;5073019;28;20450;-66
2024/01/21 11:47:47;;;;;;;1999.90;999.90;;;6.70;72.80;;;;;;5073646;28;20451;-67
2024/01/21 11:50:14;;;;;;;1999.90;999.90;;;6.90;72.10;;;;;;5075075;28;20893;-66
2024/01/21 11:52:41;;;;;;;1999.90;999.90;;;7.10;69.70;;;;;;5074767;28;20498;-65
2024/01/21 11:55:09;;;;;;;1999.90;999.90;;;7.10;71.60;;;;;;5070660;28;20466;-67
2024/01/21 11:57:35;;;;;;;1999.90;999.90;;;6.90;69.70;;;;;;5069210;28;20457;-68
2024/01/21 12:00:03;;;;;;;1999.90;999.90;;;6.70;72.90;;;;;;5073626;28;20414;-67
2024/01/21 12:02:29;;;;;;;1999.90;999.90;;;6.80;71.50;;;;;;5073997;28;20451;-66
2024/01/21 12:04:57;;;;;;;1999.90;999.90;;;7.20;71.50;;;;;;5082355;28;20463;-65
2024/01/21 12:07:25;;;;;;;1999.90;999.90;;;7.00;64.80;;;;;;5079505;28;20471;-68